map of PCL home
PCL - Airport
Location
City:  Pucallpa, Ucayali, Perú
Name:Capitán FAP David Armando Abensur Rengifo International Airport
ICAO:SPCL
IATA:PCL

Details
Type:Airport (Aerodrome, Airfield)
Use:Public/Civil, Military, International (customs port of entry)
Latitude:8°22'41"S (-8.377941)
Longitude:74°34'27"W (-74.574296)
Elevation:516 ft (157 m)
Variation:4.84°W (WMM2015 magnetic declination)
-0.17° annual change
Runways:1
Longest:9186 × 148 ft (2800 × 45 m), paved

Time
Time Zone:UTC-5
Local Time:

Weather
METAR:SPCL 151200Z VRB02KT 9999 BKN015 BKN070 24/23 Q1014 RMK PP000
TAF:SPCL 151100Z 1512/1612 02005KT 9999 SCT015 TX31/1519Z TN23/1611Z
TEMPO 1518/1522 10012KT RADZ BKN020 BKN100

Related Locations
Nearby:
Farthest:VCS: 12361 mi / 19894 km
Con Son Island [Con Dao Airport (Co Ong Airport)], Con Dao Archipelago, VN

Find:

   beyond  
but within

Other Information
Maps:
NOTAMs:
Links:
Sources:

  
  • flag of Perú
  • flag of Ucayali
  

Sectional Chart

Flight Planning
at skyvector.com

Satellite Image

Google Maps Satellite view

 

Copyright © 2004-2018 Karl L. Swartz. All rights reserved.
The Great Circle Mapper name and logo are trademarks of the Great Circle Mapper.
All other trademarks mentioned herein belong to their respective owners.
Please see credits for attibutions and further copyright information.

  Follow gcmap on Facebook Follow gcmap on Twitter Follow gcmap on Google+ GCmap on LinkedIn

hCard Microformat

Geo Microformat